Time;durP1;ratioP1;P1;durP2;ratioP2;P2;SDS_P1;SDS_P2;PMS_P1;PMS_P2;Temp;Humidity;BMP_temperature;BMP_pressure;BME280_temperature;BME280_humidity;BME280_pressure;Samples;Min_cycle;Max_cycle;Signal;HPM_P1;HPM_P2
2022/04/08 03:02:58;;;;;;;0.80;0.60;;;9.90;64.20;;;;;;4948546;23;20910;-75
2022/04/08 03:05:25;;;;;;;1.00;0.70;;;10.00;64.00;;;;;;4919380;29;20449;-76
2022/04/08 03:07:52;;;;;;;0.70;0.60;;;9.90;64.00;;;;;;4919375;29;20444;-75
2022/04/08 03:10:18;;;;;;;0.90;0.80;;;9.80;63.60;;;;;;4918992;29;20828;-75
2022/04/08 03:12:45;;;;;;;0.70;0.70;;;9.80;63.60;;;;;;4918901;29;21051;-75
2022/04/08 03:15:12;;;;;;;0.80;0.70;;;9.90;63.30;;;;;;4920679;29;20448;-73
2022/04/08 03:17:38;;;;;;;0.80;0.63;;;10.00;63.30;;;;;;4918868;29;20907;-73
2022/04/08 03:20:08;;;;;;;0.70;0.60;;;10.20;63.40;;;;;;4920226;29;20456;-74
2022/04/08 03:22:35;;;;;;;0.70;0.60;;;10.00;62.10;;;;;;4919047;29;20479;-74
2022/04/08 03:25:01;;;;;;;0.70;0.60;;;10.00;61.90;;;;;;4919070;29;20500;-74
2022/04/08 03:27:28;;;;;;;0.70;0.60;;;9.80;61.90;;;;;;4919003;29;20453;-74
2022/04/08 03:29:55;;;;;;;0.70;0.60;;;9.60;62.10;;;;;;4919045;29;20456;-73
2022/04/08 03:32:21;;;;;;;0.70;0.60;;;9.50;62.00;;;;;;4918914;29;20472;-73
2022/04/08 03:34:57;;;;;;;0.70;0.60;;;9.60;62.70;;;;;;4918982;29;20508;-74
2022/04/08 03:37:25;;;;;;;0.80;0.60;;;9.60;62.60;;;;;;4918845;29;20524;-73
2022/04/08 03:39:53;;;;;;;0.80;0.60;;;9.60;62.40;;;;;;4918792;29;20453;-74
2022/04/08 03:42:20;;;;;;;0.70;0.60;;;9.60;62.50;;;;;;4918386;29;20984;-74
2022/04/08 03:44:47;;;;;;;0.80;0.60;;;9.60;62.70;;;;;;4918796;29;20475;-74
2022/04/08 03:47:13;;;;;;;0.70;0.63;;;9.80;62.80;;;;;;4918585;29;21024;-73
2022/04/08 03:49:40;;;;;;;0.70;0.60;;;9.90;62.10;;;;;;4918725;29;20448;-74
2022/04/08 03:52:08;;;;;;;0.70;0.60;;;9.80;61.90;;;;;;4918496;29;20468;-74
2022/04/08 03:54:36;;;;;;;0.70;0.60;;;9.80;61.90;;;;;;4917664;29;20461;-74
2022/04/08 03:57:03;;;;;;;0.70;0.60;;;9.90;62.30;;;;;;4918165;29;20841;-74
2022/04/08 03:59:30;;;;;;;0.80;0.60;;;10.00;61.90;;;;;;4918149;29;20948;-74
2022/04/08 04:01:57;;;;;;;0.70;0.60;;;10.00;61.60;;;;;;4917920;29;20847;-71
2022/04/08 04:04:23;;;;;;;0.90;0.70;;;10.00;61.50;;;;;;4918410;29;20456;-71
2022/04/08 04:06:50;;;;;;;1.50;0.60;;;9.90;62.00;;;;;;4917992;29;21008;-71
2022/04/08 04:09:17;;;;;;;0.70;0.60;;;9.90;61.20;;;;;;4918299;29;20543;-71
2022/04/08 04:11:45;;;;;;;0.70;0.67;;;9.70;61.50;;;;;;4918600;29;20472;-71
2022/04/08 04:14:12;;;;;;;0.80;0.80;;;9.70;61.80;;;;;;4918238;29;20484;-71
2022/04/08 04:16:38;;;;;;;0.90;0.73;;;9.70;61.90;;;;;;4917924;29;20886;-71
2022/04/08 04:19:05;;;;;;;0.80;0.60;;;9.60;62.30;;;;;;4918140;29;20461;-72
2022/04/08 04:21:32;;;;;;;0.80;0.80;;;9.60;62.30;;;;;;4917962;29;20473;-72
2022/04/08 04:23:59;;;;;;;0.90;0.70;;;9.80;62.00;;;;;;4917773;29;20538;-72
2022/04/08 04:26:26;;;;;;;1.00;0.90;;;9.90;61.90;;;;;;4918240;29;20496;-73
2022/04/08 04:28:54;;;;;;;0.70;0.60;;;9.90;61.70;;;;;;4918784;29;20536;-74
2022/04/08 04:31:20;;;;;;;0.83;0.60;;;10.00;61.80;;;;;;4919055;29;20481;-74
2022/04/08 04:33:47;;;;;;;0.60;0.50;;;10.00;61.80;;;;;;4918990;29;20530;-73
2022/04/08 04:36:15;;;;;;;0.70;0.70;;;10.10;62.20;;;;;;4919309;29;20456;-74
2022/04/08 04:38:41;;;;;;;0.90;0.70;;;10.10;61.90;;;;;;4918934;29;20493;-73
2022/04/08 04:41:09;;;;;;;0.70;0.60;;;10.20;61.60;;;;;;4918654;29;20988;-73
2022/04/08 04:43:36;;;;;;;0.93;0.70;;;10.20;62.20;;;;;;4918713;29;20932;-73
2022/04/08 04:46:04;;;;;;;0.90;0.70;;;10.30;61.70;;;;;;4919373;29;20460;-74
2022/04/08 04:48:31;;;;;;;0.80;0.60;;;10.40;61.70;;;;;;4918950;29;20480;-74
2022/04/08 04:50:58;;;;;;;0.80;0.70;;;10.60;61.60;;;;;;4918485;29;20483;-74
2022/04/08 04:53:25;;;;;;;0.90;0.60;;;10.60;61.00;;;;;;4918702;29;20444;-74
2022/04/08 04:55:51;;;;;;;1.03;0.70;;;10.70;60.90;;;;;;4918935;29;20453;-74
2022/04/08 04:58:18;;;;;;;0.70;0.60;;;10.70;60.90;;;;;;4922078;29;20496;-73
2022/04/08 05:00:45;;;;;;;0.87;0.73;;;10.80;60.90;;;;;;4935864;29;20473;-73
2022/04/08 05:03:13;;;;;;;0.97;0.70;;;10.60;60.40;;;;;;4928278;29;20440;-74
2022/04/08 05:05:40;;;;;;;0.90;0.73;;;10.50;60.90;;;;;;4918098;29;20460;-73
2022/04/08 05:08:08;;;;;;;0.70;0.60;;;10.40;61.10;;;;;;4918101;29;20449;-74
2022/04/08 05:10:35;;;;;;;0.90;0.70;;;10.50;61.10;;;;;;4918114;29;20808;-73
2022/04/08 05:13:02;;;;;;;0.80;0.70;;;10.30;60.80;;;;;;4917910;29;20460;-74
2022/04/08 05:15:32;;;;;;;0.67;0.60;;;10.30;60.90;;;;;;4917762;29;20453;-74
2022/04/08 05:17:59;;;;;;;1.13;0.97;;;10.30;61.20;;;;;;4917334;29;20477;-73
2022/04/08 05:20:27;;;;;;;0.73;0.60;;;10.40;61.10;;;;;;4917159;29;20481;-74
2022/04/08 05:22:54;;;;;;;0.70;0.60;;;10.20;61.10;;;;;;4917230;29;20504;-73
2022/04/08 05:25:21;;;;;;;0.80;0.73;;;10.30;61.80;;;;;;4917365;29;20482;-73
2022/04/08 05:27:48;;;;;;;0.70;0.60;;;10.40;61.30;;;;;;4916912;29;20449;-73
2022/04/08 05:30:17;;;;;;;0.70;0.53;;;10.50;61.70;;;;;;4917257;29;20496;-72
2022/04/08 05:32:44;;;;;;;0.70;0.60;;;10.60;60.90;;;;;;4917065;29;20528;-72
2022/04/08 05:35:11;;;;;;;1.20;0.63;;;10.60;60.40;;;;;;4917084;29;20512;-73
2022/04/08 05:37:43;;;;;;;0.70;0.57;;;10.60;60.60;;;;;;4917186;29;20583;-73
2022/04/08 05:40:11;;;;;;;0.90;0.70;;;10.40;61.10;;;;;;4916987;29;20461;-73
2022/04/08 05:42:39;;;;;;;0.70;0.60;;;10.50;61.10;;;;;;4917001;29;20499;-73
2022/04/08 05:45:08;;;;;;;1.10;0.70;;;10.50;61.20;;;;;;4917089;29;20532;-73
2022/04/08 05:47:35;;;;;;;0.63;0.57;;;10.60;61.70;;;;;;4917132;29;20441;-73
2022/04/08 05:50:01;;;;;;;0.70;0.60;;;10.60;61.70;;;;;;4917141;29;20544;-73
2022/04/08 05:52:28;;;;;;;0.70;0.60;;;10.50;61.60;;;;;;4916756;29;20535;-72
2022/04/08 05:54:56;;;;;;;0.80;0.70;;;10.60;62.50;;;;;;4917032;29;20508;-73
2022/04/08 05:57:23;;;;;;;0.80;0.70;;;10.70;63.40;;;;;;4916499;29;21067;-73
2022/04/08 05:59:51;;;;;;;0.70;0.60;;;10.80;63.10;;;;;;4916472;29;21008;-74
2022/04/08 06:02:19;;;;;;;0.80;0.70;;;10.80;62.40;;;;;;4916458;29;20512;-72
2022/04/08 06:04:46;;;;;;;0.70;0.67;;;10.60;62.70;;;;;;4916825;29;20457;-74
2022/04/08 06:07:13;;;;;;;0.70;0.60;;;10.60;63.50;;;;;;4916560;29;20937;-73
2022/04/08 06:09:39;;;;;;;0.70;0.50;;;10.50;65.10;;;;;;4916727;29;20449;-73
2022/04/08 06:12:08;;;;;;;0.70;0.70;;;10.50;66.20;;;;;;4916729;29;20532;-73
2022/04/08 06:14:35;;;;;;;1.10;0.60;;;10.20;67.60;;;;;;4916734;29;20488;-73
2022/04/08 06:17:02;;;;;;;0.70;0.60;;;10.00;69.90;;;;;;4916322;29;21067;-73
2022/04/08 06:19:28;;;;;;;0.80;0.60;;;9.80;70.10;;;;;;4919304;29;20616;-73
2022/04/08 06:21:55;;;;;;;0.70;0.60;;;9.50;72.30;;;;;;4920048;29;20531;-73
2022/04/08 06:24:22;;;;;;;0.70;0.70;;;9.30;72.40;;;;;;4920067;29;20540;-73
2022/04/08 06:26:48;;;;;;;0.70;0.63;;;9.20;74.00;;;;;;4920043;29;20520;-72
2022/04/08 06:29:16;;;;;;;0.70;0.70;;;9.20;75.20;;;;;;4920014;29;20457;-72
2022/04/08 06:31:43;;;;;;;0.70;0.70;;;9.20;74.80;;;;;;4919875;29;20527;-73
2022/04/08 06:34:10;;;;;;;0.70;0.60;;;9.20;74.80;;;;;;4919951;29;20515;-73
2022/04/08 06:36:36;;;;;;;0.70;0.60;;;9.10;75.00;;;;;;4919802;29;20504;-73
2022/04/08 06:39:03;;;;;;;0.70;0.70;;;8.90;75.50;;;;;;4919801;29;20500;-71
2022/04/08 06:41:30;;;;;;;0.70;0.60;;;8.90;76.60;;;;;;4919634;29;20559;-73
2022/04/08 06:43:58;;;;;;;0.87;0.70;;;8.90;76.70;;;;;;4919735;29;20448;-73
2022/04/08 06:46:26;;;;;;;0.70;0.50;;;8.80;77.60;;;;;;4919717;29;20453;-74
2022/04/08 06:48:52;;;;;;;0.70;0.50;;;8.90;78.20;;;;;;4919652;29;20449;-73
2022/04/08 06:51:19;;;;;;;0.63;0.60;;;9.00;77.80;;;;;;4919252;29;20480;-73
2022/04/08 06:53:45;;;;;;;0.70;0.60;;;8.90;77.80;;;;;;4919536;29;20449;-74
2022/04/08 06:56:12;;;;;;;0.97;0.70;;;8.70;77.70;;;;;;4919458;29;20456;-73
2022/04/08 06:58:39;;;;;;;0.67;0.60;;;8.60;78.70;;;;;;4919454;29;20547;-73
2022/04/08 07:01:07;;;;;;;0.70;0.63;;;8.70;79.40;;;;;;4919192;29;20489;-74
2022/04/08 07:03:35;;;;;;;0.70;0.70;;;8.70;77.00;;;;;;4919468;29;20464;-73
2022/04/08 07:06:03;;;;;;;0.90;0.50;;;8.70;79.10;;;;;;4919510;29;20809;-73
2022/04/08 07:08:30;;;;;;;0.73;0.50;;;8.60;78.80;;;;;;4920080;29;20831;-74
2022/04/08 07:10:57;;;;;;;0.70;0.60;;;8.70;79.10;;;;;;4920597;29;20484;-73
2022/04/08 07:13:23;;;;;;;1.70;0.60;;;8.80;79.70;;;;;;4920549;29;20456;-74
2022/04/08 07:15:50;;;;;;;0.80;0.60;;;9.00;79.40;;;;;;4920471;29;20449;-74
2022/04/08 07:18:17;;;;;;;0.70;0.60;;;9.00;77.50;;;;;;4919835;29;21000;-74
2022/04/08 07:20:45;;;;;;;0.70;0.70;;;9.10;78.20;;;;;;4920363;29;20503;-74
2022/04/08 07:23:11;;;;;;;0.70;0.60;;;9.10;78.00;;;;;;4920560;29;20453;-74
2022/04/08 07:25:39;;;;;;;0.70;0.57;;;9.30;77.80;;;;;;4920180;29;20618;-74
2022/04/08 07:28:06;;;;;;;1.30;0.60;;;9.30;77.60;;;;;;4920389;29;20449;-74
2022/04/08 07:30:33;;;;;;;0.67;0.53;;;9.20;77.50;;;;;;4921046;29;20469;-74
2022/04/08 07:33:01;;;;;;;0.67;0.50;;;9.10;77.60;;;;;;4920213;29;20445;-74
2022/04/08 07:35:30;;;;;;;0.70;0.50;;;8.90;79.00;;;;;;4920517;29;20492;-73
2022/04/08 07:37:58;;;;;;;1.27;0.60;;;8.90;79.20;;;;;;4919975;29;21012;-73
2022/04/08 07:40:26;;;;;;;0.70;0.60;;;8.90;79.10;;;;;;4919965;29;20463;-74
2022/04/08 07:42:53;;;;;;;0.70;0.60;;;8.50;79.30;;;;;;4920195;29;21012;-73
2022/04/08 07:45:24;;;;;;;0.90;0.60;;;8.20;80.60;;;;;;4920250;29;20504;-73
2022/04/08 07:47:51;;;;;;;0.67;0.50;;;8.30;80.90;;;;;;4919735;29;20437;-74
2022/04/08 07:50:17;;;;;;;0.70;0.60;;;8.40;81.70;;;;;;4919971;29;20449;-74
2022/04/08 07:52:44;;;;;;;0.70;0.50;;;8.40;82.10;;;;;;4918741;29;20484;-73
2022/04/08 07:55:12;;;;;;;0.70;0.57;;;8.30;82.00;;;;;;4918137;29;20949;-75
2022/04/08 07:57:46;;;;;;;0.70;0.60;;;8.30;82.40;;;;;;4918282;29;20491;-74
2022/04/08 08:00:15;;;;;;;0.70;0.60;;;8.30;82.00;;;;;;4918132;29;20945;-74
2022/04/08 08:02:41;;;;;;;0.60;0.50;;;8.20;82.80;;;;;;4918153;29;20659;-74
2022/04/08 08:05:09;;;;;;;0.70;0.60;;;8.40;83.20;;;;;;4919315;29;20464;-73
2022/04/08 08:07:45;;;;;;;0.77;0.60;;;8.40;82.60;;;;;;4918279;29;20524;-74
2022/04/08 08:10:16;;;;;;;0.70;0.60;;;8.50;83.00;;;;;;4918187;29;20436;-74
2022/04/08 08:12:43;;;;;;;0.70;0.60;;;8.20;83.70;;;;;;4917892;29;20540;-73
2022/04/08 08:15:11;;;;;;;0.60;0.50;;;8.30;83.10;;;;;;4917783;29;20834;-74
2022/04/08 08:17:38;;;;;;;0.80;0.60;;;8.50;82.50;;;;;;4918090;29;20484;-74
2022/04/08 08:20:06;;;;;;;0.70;0.60;;;8.40;82.00;;;;;;4917799;29;20892;-75
2022/04/08 08:22:33;;;;;;;0.70;0.60;;;8.20;82.80;;;;;;4917979;29;20848;-75
2022/04/08 08:24:59;;;;;;;0.70;0.60;;;8.30;82.90;;;;;;4917675;29;21000;-75
2022/04/08 08:27:28;;;;;;;0.70;0.53;;;8.30;82.80;;;;;;4917942;29;20457;-74
2022/04/08 08:29:54;;;;;;;0.60;0.50;;;8.60;84.10;;;;;;4917523;29;20869;-74
2022/04/08 08:32:21;;;;;;;0.60;0.50;;;8.50;82.90;;;;;;4917475;29;20555;-74
2022/04/08 08:34:48;;;;;;;0.80;0.50;;;8.60;84.30;;;;;;4917834;29;20543;-73
2022/04/08 08:37:14;;;;;;;0.80;0.60;;;8.70;83.10;;;;;;4917900;29;20516;-74
2022/04/08 08:39:41;;;;;;;0.70;0.60;;;8.70;83.20;;;;;;4918266;29;20465;-73
2022/04/08 08:42:10;;;;;;;0.60;0.50;;;8.80;84.30;;;;;;4916867;29;20988;-73
2022/04/08 08:44:39;;;;;;;0.60;0.50;;;8.90;84.00;;;;;;4917646;29;20461;-73
2022/04/08 08:47:11;;;;;;;0.60;0.50;;;8.90;84.80;;;;;;4917643;29;20512;-73
2022/04/08 08:49:42;;;;;;;0.70;0.57;;;8.80;83.10;;;;;;4917610;29;20441;-74
2022/04/08 08:52:10;;;;;;;0.60;0.50;;;8.80;83.90;;;;;;4917569;29;20543;-74
2022/04/08 08:54:37;;;;;;;0.67;0.50;;;8.90;82.60;;;;;;4917512;29;20448;-74
2022/04/08 08:57:04;;;;;;;0.70;0.60;;;8.80;82.00;;;;;;4917204;29;20460;-73
2022/04/08 08:59:31;;;;;;;0.60;0.50;;;8.80;83.50;;;;;;4917468;29;20484;-73
2022/04/08 09:02:02;;;;;;;0.63;0.50;;;8.90;83.10;;;;;;4917193;29;20544;-74
2022/04/08 09:04:29;;;;;;;0.60;0.50;;;8.90;81.60;;;;;;4917434;29;20457;-73
2022/04/08 09:06:56;;;;;;;0.60;0.50;;;8.80;83.50;;;;;;4917435;29;20504;-73
2022/04/08 09:09:30;;;;;;;0.60;0.50;;;9.00;83.40;;;;;;4917375;29;20480;-74
2022/04/08 09:11:57;;;;;;;0.70;0.60;;;8.90;82.20;;;;;;4916986;29;20472;-73
2022/04/08 09:14:28;;;;;;;0.60;0.50;;;8.70;80.40;;;;;;4917323;29;20459;-73
2022/04/08 09:17:02;;;;;;;0.70;0.50;;;8.60;81.50;;;;;;4918887;29;20532;-77
2022/04/08 09:19:32;;;;;;;0.70;0.60;;;8.90;82.50;;;;;;4917106;29;21051;-77
2022/04/08 09:21:59;;;;;;;0.70;0.60;;;9.10;82.10;;;;;;4916894;29;21067;-78
2022/04/08 09:24:26;;;;;;;0.63;0.50;;;9.30;81.50;;;;;;4917270;29;20512;-78
2022/04/08 09:26:54;;;;;;;0.60;0.50;;;9.40;81.90;;;;;;4917281;29;20456;-77
2022/04/08 09:29:21;;;;;;;0.60;0.50;;;9.60;81.70;;;;;;4917399;29;20445;-78
2022/04/08 09:31:49;;;;;;;0.70;0.50;;;9.80;81.50;;;;;;4917090;29;20472;-77
2022/04/08 09:34:18;;;;;;;0.70;0.50;;;10.00;80.10;;;;;;4917230;29;20540;-77
2022/04/08 09:36:45;;;;;;;0.70;0.60;;;10.20;78.20;;;;;;4917148;29;20457;-77
2022/04/08 09:39:12;;;;;;;0.60;0.50;;;10.00;78.00;;;;;;4917083;29;20566;-77
2022/04/08 09:41:40;;;;;;;0.60;0.50;;;10.20;78.80;;;;;;4917117;29;20477;-77
2022/04/08 09:44:07;;;;;;;0.70;0.50;;;10.10;76.20;;;;;;4916959;29;21010;-77
2022/04/08 09:46:35;;;;;;;0.60;0.50;;;9.70;77.60;;;;;;4917023;29;20457;-78
2022/04/08 09:49:02;;;;;;;0.67;0.50;;;9.70;78.50;;;;;;4916947;29;20453;-78
2022/04/08 09:51:32;;;;;;;0.60;0.50;;;9.80;78.80;;;;;;4916895;29;20472;-78
2022/04/08 09:54:00;;;;;;;0.60;0.50;;;9.90;78.80;;;;;;4919312;29;20496;-78
2022/04/08 09:56:28;;;;;;;0.60;0.50;;;9.90;78.60;;;;;;4920867;29;20460;-79
2022/04/08 09:59:02;;;;;;;0.70;0.50;;;9.90;79.40;;;;;;4920740;29;20484;-78
2022/04/08 10:01:29;;;;;;;0.60;0.50;;;10.00;78.90;;;;;;4920558;29;20514;-78
2022/04/08 10:03:56;;;;;;;0.67;0.53;;;10.00;77.90;;;;;;4920773;29;20452;-79
2022/04/08 10:06:24;;;;;;;0.70;0.53;;;10.10;77.70;;;;;;4920722;29;20478;-79
2022/04/08 10:08:52;;;;;;;0.60;0.50;;;10.20;77.70;;;;;;4920623;29;20484;-78
2022/04/08 10:11:25;;;;;;;0.70;0.60;;;10.30;78.30;;;;;;4920713;29;20484;-78
2022/04/08 10:14:12;;;;;;;0.80;0.60;;;10.30;78.00;;;;;;4920769;29;20467;-77
2022/04/08 10:16:40;;;;;;;0.60;0.50;;;10.20;78.70;;;;;;4920314;29;20436;-77
2022/04/08 10:19:08;;;;;;;0.70;0.50;;;10.20;78.90;;;;;;4920210;29;20492;-78
2022/04/08 10:21:39;;;;;;;0.60;0.50;;;10.00;80.00;;;;;;4919959;29;20819;-78
2022/04/08 10:24:13;;;;;;;0.67;0.60;;;10.10;80.60;;;;;;4921868;29;20559;-78
2022/04/08 10:26:56;;;;;;;0.70;0.50;;;10.20;80.10;;;;;;4924114;29;20530;-78
2022/04/08 10:29:23;;;;;;;0.70;0.60;;;10.10;79.80;;;;;;4923294;29;20854;-78
2022/04/08 10:31:56;;;;;;;1.03;0.70;;;10.40;79.20;;;;;;4920121;29;20468;-77
2022/04/08 10:34:23;;;;;;;0.70;0.60;;;10.40;78.70;;;;;;4920176;29;20441;-78
2022/04/08 10:36:50;;;;;;;0.60;0.50;;;10.20;79.60;;;;;;4919948;29;20444;-78
2022/04/08 10:39:19;;;;;;;0.67;0.60;;;10.30;79.50;;;;;;4919986;29;20540;-78
2022/04/08 10:41:50;;;;;;;0.70;0.60;;;10.40;79.50;;;;;;4919612;29;20996;-78
2022/04/08 10:44:29;;;;;;;0.80;0.60;;;10.50;79.70;;;;;;4919905;29;20432;-77
2022/04/08 10:46:59;;;;;;;0.70;0.60;;;10.50;80.30;;;;;;4919998;29;20523;-78
2022/04/08 10:49:25;;;;;;;0.67;0.60;;;10.50;80.20;;;;;;4919766;29;20513;-78
2022/04/08 10:51:52;;;;;;;0.60;0.50;;;10.20;80.90;;;;;;4919752;29;20897;-78
2022/04/08 10:54:21;;;;;;;0.63;0.50;;;10.10;80.90;;;;;;4919874;29;20457;-78
2022/04/08 10:56:57;;;;;;;0.67;0.60;;;9.90;81.10;;;;;;4919897;29;20513;-78
2022/04/08 10:59:27;;;;;;;0.70;0.60;;;9.90;82.00;;;;;;4920053;29;20464;-78
2022/04/08 11:01:58;;;;;;;0.67;0.50;;;10.10;81.80;;;;;;4919795;29;20512;-78
2022/04/08 11:04:28;;;;;;;0.80;0.60;;;10.20;81.90;;;;;;4919690;29;20441;-79
2022/04/08 11:06:54;;;;;;;0.70;0.60;;;9.80;82.80;;;;;;4919782;29;21015;-79
2022/04/08 11:09:23;;;;;;;0.60;0.50;;;10.00;83.20;;;;;;4919795;29;20925;-79
2022/04/08 11:11:53;;;;;;;0.67;0.50;;;10.10;82.60;;;;;;4919656;29;20977;-79
2022/04/08 11:14:20;;;;;;;1.30;0.60;;;9.90;82.30;;;;;;4919939;29;21029;-78
2022/04/08 11:16:50;;;;;;;0.70;0.60;;;9.50;83.20;;;;;;4919787;29;20873;-78
2022/04/08 11:19:17;;;;;;;0.70;0.60;;;9.50;84.10;;;;;;4919861;29;20571;-78
2022/04/08 11:21:44;;;;;;;0.70;0.60;;;9.60;84.20;;;;;;4919373;29;20480;-77
2022/04/08 11:24:13;;;;;;;0.70;0.60;;;9.70;84.20;;;;;;4919197;29;20452;-77
2022/04/08 11:26:45;;;;;;;0.80;0.60;;;9.80;83.80;;;;;;4919481;29;20461;-78
2022/04/08 11:29:14;;;;;;;0.70;0.70;;;9.90;83.60;;;;;;4919869;29;20500;-78
2022/04/08 11:31:42;;;;;;;0.80;0.60;;;10.00;83.30;;;;;;4919071;29;20584;-78
2022/04/08 11:34:08;;;;;;;0.70;0.53;;;9.70;83.90;;;;;;4919598;29;20504;-78
2022/04/08 11:36:36;;;;;;;0.70;0.60;;;9.60;84.40;;;;;;4918869;29;20457;-78
2022/04/08 11:39:04;;;;;;;0.63;0.50;;;9.70;84.40;;;;;;4919057;29;20576;-79
2022/04/08 11:41:30;;;;;;;0.70;0.50;;;9.70;84.30;;;;;;4919175;29;20865;-79
2022/04/08 11:44:00;;;;;;;0.67;0.50;;;9.80;83.80;;;;;;4918910;29;20508;-78
2022/04/08 11:46:27;;;;;;;0.60;0.50;;;9.80;83.80;;;;;;4919008;29;20453;-78
2022/04/08 11:48:54;;;;;;;0.70;0.60;;;9.70;83.60;;;;;;4918787;29;20461;-79
2022/04/08 11:51:21;;;;;;;0.70;0.70;;;9.50;84.00;;;;;;4918796;29;20517;-79
2022/04/08 11:53:49;;;;;;;0.60;0.60;;;9.50;84.10;;;;;;4919002;29;20496;-78
2022/04/08 11:56:23;;;;;;;0.70;0.60;;;9.40;84.30;;;;;;4918641;29;20859;-77
2022/04/08 11:58:56;;;;;;;0.70;0.50;;;9.50;84.40;;;;;;4918564;29;20495;-78
2022/04/08 12:01:24;;;;;;;0.70;0.60;;;9.50;83.70;;;;;;4918505;29;20579;-79
2022/04/08 12:03:52;;;;;;;0.70;0.60;;;9.60;84.30;;;;;;4918495;29;20951;-78
2022/04/08 12:06:19;;;;;;;0.60;0.50;;;9.60;83.70;;;;;;4918361;29;20555;-78
2022/04/08 12:08:47;;;;;;;0.60;0.50;;;9.50;84.10;;;;;;4918354;29;20826;-78
2022/04/08 12:11:14;;;;;;;0.63;0.50;;;9.70;84.20;;;;;;4918380;29;20540;-78
2022/04/08 12:13:42;;;;;;;0.63;0.60;;;9.80;83.80;;;;;;4919014;29;20803;-78
2022/04/08 12:16:10;;;;;;;0.60;0.50;;;9.80;83.50;;;;;;4918001;29;20520;-78
2022/04/08 12:18:48;;;;;;;0.70;0.60;;;9.80;83.80;;;;;;4918178;29;20457;-78
2022/04/08 12:21:20;;;;;;;0.70;0.60;;;9.80;83.30;;;;;;4920699;29;20480;-78
2022/04/08 12:23:49;;;;;;;0.67;0.60;;;9.50;84.10;;;;;;4922768;29;20812;-78
2022/04/08 12:26:16;;;;;;;0.97;0.70;;;9.60;84.40;;;;;;4922254;29;20452;-77
2022/04/08 12:28:42;;;;;;;0.60;0.50;;;9.50;84.30;;;;;;4922482;29;20457;-77
2022/04/08 12:31:13;;;;;;;0.70;0.70;;;9.20;85.80;;;;;;4922193;29;20473;-77
2022/04/08 12:33:42;;;;;;;0.70;0.60;;;9.30;85.80;;;;;;4922220;29;20456;-77
2022/04/08 12:36:13;;;;;;;0.70;0.67;;;9.10;85.00;;;;;;4930054;29;20448;-77
2022/04/08 12:38:40;;;;;;;0.80;0.60;;;9.00;86.50;;;;;;4940320;29;20409;-77
2022/04/08 12:41:08;;;;;;;0.63;0.57;;;9.00;86.90;;;;;;4941796;29;20474;-77
2022/04/08 12:43:35;;;;;;;0.70;0.57;;;9.10;86.70;;;;;;4929857;29;20493;-78
2022/04/08 12:46:02;;;;;;;0.70;0.57;;;9.20;86.60;;;;;;4924192;29;20955;-78
2022/04/08 12:48:31;;;;;;;0.80;0.80;;;9.20;85.80;;;;;;4924897;29;20449;-79
2022/04/08 12:50:59;;;;;;;0.67;0.60;;;9.20;86.30;;;;;;4923737;29;20472;-78
2022/04/08 12:53:28;;;;;;;0.70;0.60;;;9.40;85.40;;;;;;4924228;29;20999;-79
2022/04/08 12:55:56;;;;;;;0.70;0.60;;;9.50;84.30;;;;;;4924854;29;20451;-80
2022/04/08 12:58:22;;;;;;;0.70;0.50;;;9.40;84.60;;;;;;4924133;29;20967;-77
2022/04/08 13:00:50;;;;;;;0.60;0.50;;;9.60;83.90;;;;;;4924460;29;20493;-79
2022/04/08 13:03:17;;;;;;;0.70;0.70;;;9.40;82.90;;;;;;4924266;29;20452;-79
2022/04/08 13:05:44;;;;;;;0.90;0.60;;;9.30;84.00;;;;;;4924836;29;20463;-78
2022/04/08 13:08:12;;;;;;;0.63;0.60;;;9.20;83.70;;;;;;4924200;29;20957;-78
2022/04/08 13:10:38;;;;;;;0.70;0.60;;;9.20;83.10;;;;;;4924317;29;20441;-78
2022/04/08 13:13:05;;;;;;;0.70;0.60;;;8.90;84.10;;;;;;4924158;29;20461;-78
2022/04/08 13:15:32;;;;;;;0.90;0.60;;;8.80;85.40;;;;;;4921973;29;21016;-78
2022/04/08 13:18:01;;;;;;;0.70;0.60;;;8.90;85.20;;;;;;4922886;29;20457;-77
2022/04/08 13:20:28;;;;;;;0.70;0.60;;;8.90;85.70;;;;;;4921789;29;20484;-78
2022/04/08 13:22:55;;;;;;;0.80;0.70;;;9.20;84.80;;;;;;4921543;29;20463;-78
2022/04/08 13:25:24;;;;;;;0.70;0.60;;;9.40;84.40;;;;;;4920788;29;20457;-77
2022/04/08 13:27:53;;;;;;;0.70;0.70;;;9.50;84.30;;;;;;4922475;29;20461;-77
2022/04/08 13:30:20;;;;;;;0.70;0.60;;;9.20;84.50;;;;;;4924739;29;20488;-79
2022/04/08 13:32:48;;;;;;;0.70;0.60;;;9.40;85.00;;;;;;4927170;29;20473;-77
2022/04/08 13:35:14;;;;;;;0.70;0.67;;;9.40;83.70;;;;;;4923652;29;20987;-78
2022/04/08 13:37:41;;;;;;;0.70;0.70;;;9.40;84.30;;;;;;4922493;29;20458;-78
2022/04/08 13:40:09;;;;;;;1.07;0.70;;;9.40;84.50;;;;;;4922256;29;20477;-78
2022/04/08 13:42:38;;;;;;;0.70;0.60;;;9.20;85.20;;;;;;4922666;29;20477;-78
2022/04/08 13:45:06;;;;;;;0.70;0.60;;;9.20;85.70;;;;;;4922159;29;20459;-77
2022/04/08 13:47:33;;;;;;;0.87;0.80;;;9.00;86.30;;;;;;4921737;29;20457;-77
2022/04/08 13:49:59;;;;;;;0.87;0.87;;;8.70;88.00;;;;;;4921801;29;20460;-77
2022/04/08 13:52:26;;;;;;;1.03;1.03;;;8.70;88.70;;;;;;4921492;29;20477;-77
2022/04/08 13:54:53;;;;;;;1.37;1.30;;;8.80;88.30;;;;;;4923751;29;20856;-78
2022/04/08 13:57:20;;;;;;;1.50;1.40;;;8.90;88.30;;;;;;4926091;29;20463;-78
2022/04/08 13:59:48;;;;;;;1.63;1.53;;;8.90;88.70;;;;;;4926827;29;20489;-78
2022/04/08 14:02:16;;;;;;;0.90;0.90;;;9.00;88.90;;;;;;4925419;29;20853;-78
2022/04/08 14:04:43;;;;;;;0.73;0.73;;;8.50;90.20;;;;;;4923155;29;20455;-78
2022/04/08 14:07:10;;;;;;;0.70;0.60;;;8.40;91.20;;;;;;4923362;29;20449;-79
2022/04/08 14:09:37;;;;;;;0.70;0.70;;;8.20;92.30;;;;;;4928032;29;20459;-79
2022/04/08 14:12:05;;;;;;;0.70;0.60;;;8.20;92.50;;;;;;4923068;29;20545;-78
2022/04/08 14:14:32;;;;;;;0.70;0.60;;;8.20;92.70;;;;;;4922880;29;20463;-78
2022/04/08 14:17:00;;;;;;;0.70;0.60;;;8.20;92.80;;;;;;4923647;29;20562;-79
2022/04/08 14:19:27;;;;;;;0.70;0.60;;;8.10;93.70;;;;;;4923871;29;20492;-77
2022/04/08 14:21:54;;;;;;;0.70;0.60;;;8.20;94.00;;;;;;4924247;29;20518;-78
2022/04/08 14:24:21;;;;;;;0.70;0.60;;;8.50;93.90;;;;;;4922598;29;20455;-78
2022/04/08 14:26:48;;;;;;;0.70;0.60;;;8.60;93.40;;;;;;4922745;29;20945;-78
2022/04/08 14:29:17;;;;;;;0.70;0.60;;;8.70;94.20;;;;;;4922227;29;20463;-78
2022/04/08 14:31:43;;;;;;;0.70;0.70;;;8.80;94.30;;;;;;4920316;29;20512;-78
2022/04/08 14:34:11;;;;;;;0.63;0.50;;;9.00;94.20;;;;;;4920143;29;20512;-78
2022/04/08 14:36:38;;;;;;;0.60;0.60;;;9.10;94.20;;;;;;4920186;29;20456;-78
2022/04/08 14:39:06;;;;;;;0.70;0.57;;;9.10;94.40;;;;;;4919641;29;20464;-78
2022/04/08 14:41:33;;;;;;;0.70;0.50;;;9.30;95.00;;;;;;4920058;29;20488;-79
2022/04/08 14:44:00;;;;;;;0.70;0.60;;;9.50;95.10;;;;;;4919792;29;20460;-78
2022/04/08 14:46:27;;;;;;;0.60;0.53;;;9.70;95.20;;;;;;4921672;29;20933;-78
2022/04/08 14:48:54;;;;;;;0.63;0.50;;;9.90;94.90;;;;;;4921028;29;20941;-78
2022/04/08 14:51:22;;;;;;;0.70;0.60;;;10.00;94.60;;;;;;4919983;29;20628;-77
2022/04/08 14:53:49;;;;;;;0.90;0.60;;;10.10;94.90;;;;;;4920590;29;20463;-78
2022/04/08 14:56:16;;;;;;;0.70;0.60;;;10.20;94.60;;;;;;4920009;29;20547;-78
2022/04/08 14:58:43;;;;;;;0.60;0.50;;;10.20;94.90;;;;;;4923410;29;20564;-78
2022/04/08 15:01:12;;;;;;;0.67;0.57;;;10.30;95.00;;;;;;4919472;29;20907;-78
2022/04/08 15:03:39;;;;;;;0.67;0.50;;;10.40;94.40;;;;;;4920751;29;20494;-78
2022/04/08 15:06:06;;;;;;;0.67;0.50;;;10.50;94.40;;;;;;4920520;29;20516;-78
2022/04/08 15:08:34;;;;;;;0.70;0.60;;;10.60;93.70;;;;;;4921023;29;20460;-79
2022/04/08 15:11:03;;;;;;;0.60;0.50;;;10.60;94.30;;;;;;4920427;29;20492;-78
2022/04/08 15:13:30;;;;;;;0.63;0.50;;;10.70;94.30;;;;;;4920049;29;20448;-78
2022/04/08 15:15:58;;;;;;;0.60;0.50;;;10.80;94.20;;;;;;4921161;29;20872;-79
2022/04/08 15:18:25;;;;;;;0.70;0.60;;;11.10;94.00;;;;;;4920149;29;20456;-79
2022/04/08 15:20:52;;;;;;;0.70;0.50;;;11.30;93.00;;;;;;4920005;29;20500;-79
2022/04/08 15:23:19;;;;;;;0.70;0.50;;;11.50;92.90;;;;;;4920464;29;20452;-78
2022/04/08 15:25:47;;;;;;;0.60;0.50;;;11.50;91.40;;;;;;4919746;29;20507;-77
2022/04/08 15:28:14;;;;;;;0.63;0.50;;;11.60;91.40;;;;;;4919514;29;20453;-78
2022/04/08 15:30:41;;;;;;;0.70;0.50;;;11.50;91.40;;;;;;4921570;29;20873;-78
2022/04/08 15:33:08;;;;;;;0.67;0.50;;;11.40;91.80;;;;;;4922453;29;20986;-77
2022/04/08 15:35:36;;;;;;;0.60;0.50;;;11.50;91.80;;;;;;4922119;29;20472;-78
2022/04/08 15:38:03;;;;;;;0.60;0.50;;;11.50;91.30;;;;;;4924651;29;20465;-79
2022/04/08 15:40:30;;;;;;;0.70;0.53;;;11.70;91.30;;;;;;4923533;29;20484;-79
2022/04/08 15:42:58;;;;;;;0.67;0.60;;;11.80;90.40;;;;;;4924036;29;20456;-78
2022/04/08 15:45:25;;;;;;;0.60;0.50;;;11.80;90.30;;;;;;4923530;29;20444;-78
2022/04/08 15:47:55;;;;;;;0.70;0.50;;;12.00;89.80;;;;;;4922410;29;20473;-77
2022/04/08 15:50:21;;;;;;;0.60;0.50;;;12.20;89.90;;;;;;4921529;29;20457;-78
2022/04/08 15:52:48;;;;;;;0.63;0.50;;;12.30;89.50;;;;;;4919042;29;20456;-77
2022/04/08 15:55:15;;;;;;;0.70;0.53;;;12.20;87.90;;;;;;4919472;29;20544;-78
2022/04/08 15:57:42;;;;;;;0.70;0.60;;;12.30;88.80;;;;;;4920132;29;20467;-78